METAR Data
IDs: Format: Raw Decoded Include TAF

Data at: 2112 UTC 01 Dec 2021

LIPA 011855Z 36001KT 9999 SCT050 BKN060 06/04 Q1006 RMK BKN VIS MIN 9999 WIND THR05 /////KT WIND THR23 /////KT A2978 BLU